aviador You're here:

KMKG Decoded Metar

MUSKEGON in MI, USA
Report Time2017-07-24 15:55:00
UTC Time2017-07-24 16:37:07
Flight Rules vfr VFR
Wind040° at 09 kt
W.Decomp.*RWY 06: 8.7 kt HW 2.5 kt LCW
RWY 32: 0.9 kt HW 9.0 kt RCW
W.Rank040° ranks 35
Current wind is above 040° avg. (6.4)
Visibility9999 m
Phenomena:N/A
Clouds:Scattered 034 Hf
Expected CloudBase > 4,000 ft AGL from Temp-Dew spread
CeilingNone
Temp23°C (ISA +9)
Dew Point13°C (53% RH)
AAT20.7°C
QNH1017 hPa
Density Alt1,768 ft
Elevation627 ft
Report Wrong Elevation
Raw Report
METAR KMKG 241555Z 04009KT 360V080 10SM SCT034 23/13 A3003 RMK AO2
SLP165 T02280128=

Extra information for KMKG:More info

Metar Taf Metar & Taf Last 4 Metars F.Rules Stats Wind Profile Meteogram Temp Stats Airport Information Weather charts Add Link Nearby VenuesMetar ALERT Operation Metar Decoded Social comments

AIRNAV info for KMKG